Taouey — ZCAY9 — position and weather

sailwx.info

Track history (hours):
 
Tides and Currents Weather Stations Pressure Air Temp Water Temp Dewpoint Dewpoint Depression Visibility Wind Speed Wind Dir Waves Ship Positions

Taouey

Last reported at 2017-Jun-16 07:07 UTC. Time now 2017-Jun-24 01:59 UTC.
Position N 41°05' E 009°32'.

Length 58 m; draft 4 m.

MMSI: 310079000.

Date/timePositionNaut miles runAvg speedWind from/ knotsBaromVisibWave heightAir tempDewpointWater temp
2017-Jun-16 07:07N 41°05' E 009°32'0 0.0
2017-Jun-16 06:52N 41°05' E 009°32'0 0.0
2017-Jun-16 06:30N 41°05' E 009°32'0 0.0
2017-Jun-16 05:53N 41°05' E 009°32'0 0.0
2017-Jun-16 05:30N 41°05' E 009°32'0 0.0
2017-Jun-16 05:00N 41°05' E 009°32'0 0.0
2017-Jun-16 04:26N 41°05' E 009°32'0 0.0
2017-Jun-16 04:00N 41°05' E 009°32'0 0.0
2017-Jun-16 03:29N 41°05' E 009°32'0 0.0
2017-Jun-16 03:00N 41°05' E 009°32'0 0.0
2017-Jun-16 02:30N 41°05' E 009°32'0 0.0
2017-Jun-16 02:00N 41°05' E 009°32'0 0.0
2017-Jun-16 01:30N 41°05' E 009°32'0 0.1
2017-Jun-16 01:00N 41°05' E 009°32'0 0.0
2017-Jun-16 00:30N 41°05' E 009°32'0 0.0
2017-Jun-15 23:59N 41°05' E 009°32'0 0.0
2017-Jun-15 23:27N 41°05' E 009°32'0 0.0
2017-Jun-15 22:57N 41°05' E 009°32'0 0.0
2017-Jun-15 22:27N 41°05' E 009°32'0 0.0
2017-Jun-15 21:57N 41°05' E 009°32'0 0.0
2017-Jun-15 21:23N 41°05' E 009°32'0 0.0
2017-Jun-15 21:00N 41°05' E 009°32'0 0.0
2017-Jun-15 20:29N 41°05' E 009°32'0 0.0
2017-Jun-15 19:58N 41°05' E 009°32'0 0.0
2017-Jun-15 19:29N 41°05' E 009°32'0 0.0
2017-Jun-15 18:58N 41°05' E 009°32'0 0.1
2017-Jun-15 18:17N 41°05' E 009°32'0 0.1
2017-Jun-15 17:55N 41°05' E 009°32'0 0.0
2017-Jun-15 17:17N 41°05' E 009°32'0 0.0
2017-Jun-15 16:33N 41°05' E 009°32'0 0.1
2017-Jun-15 16:29N 41°05' E 009°32'0 0.0
2017-Jun-15 15:56N 41°05' E 009°32'0 0.0
2017-Jun-15 15:05N 41°05' E 009°32'0 0.0
2017-Jun-15 14:50N 41°05' E 009°32'0 0.0
2017-Jun-15 13:59N 41°05' E 009°32'0 0.0
2017-Jun-15 13:28N 41°05' E 009°32'0 0.0
2017-Jun-15 12:48N 41°05' E 009°32'0 0.0
2017-Jun-15 12:28N 41°05' E 009°32'0 0.0
2017-Jun-15 11:49N 41°05' E 009°32'0 0.0
2017-Jun-15 10:30N 41°05' E 009°32'1 1.6
2017-Jun-15 09:53N 41°04' E 009°33'3 8.3
2017-Jun-15 09:28N 41°07' E 009°35'6 9.7
2017-Jun-15 08:54N 41°10' E 009°28'411.1
2017-Jun-15 08:30N 41°12' E 009°23'510.4
2017-Jun-15 08:00N 41°15' E 009°18'610.1
2017-Jun-15 07:25N 41°17' E 009°10'511.1
2017-Jun-15 06:57N 41°17' E 009°03'610.8
2017-Jun-15 06:23N 41°20' E 008°56'410.8
2017-Jun-15 05:59N 41°23' E 008°52'611.0
2017-Jun-15 05:27N 41°27' E 008°46'510.9
2017-Jun-15 04:57N 41°31' E 008°42'510.4
2017-Jun-15 04:30N 41°34' E 008°37'510.1
2017-Jun-15 03:59N 41°38' E 008°33'510.1
2017-Jun-15 03:28N 41°43' E 008°29'510.1
2017-Jun-15 02:59N 41°47' E 008°26'5 9.9
2017-Jun-15 02:28N 41°52' E 008°24'510.4
2017-Jun-15 01:57N 41°57' E 008°21'510.3
2017-Jun-15 01:29N 42°01' E 008°19'510.3
2017-Jun-15 01:01N 42°06' E 008°16'610.4
2017-Jun-15 00:29N 42°11' E 008°14'610.5
2017-Jun-14 23:55N 42°17' E 008°11'510.6
2017-Jun-14 23:26N 42°21' E 008°08'510.7
2017-Jun-14 22:58N 42°26' E 008°06'710.6
2017-Jun-14 22:18N 42°33' E 008°03'310.8
2017-Jun-14 21:59N 42°36' E 008°01'510.8
2017-Jun-14 21:30N 42°41' E 007°58'910.5
2017-Jun-14 20:39N 42°49' E 007°54'210.2
2017-Jun-14 20:30N 42°51' E 007°54'510.3
2017-Jun-14 19:59N 42°56' E 007°51'52 2.4
2017-Jun-13 22:23N 43°44' E 007°26'0 0.0
2017-Jun-13 21:58N 43°44' E 007°26'0 0.0
2017-Jun-13 14:48N 43°44' E 007°26'0 0.0
2017-Jun-13 14:23N 43°44' E 007°26'0 0.0
2017-Jun-13 11:18N 43°44' E 007°26'0 0.0
2017-Jun-13 11:01N 43°44' E 007°26'0 0.0
2017-Jun-13 10:30N 43°44' E 007°26'0 0.0
2017-Jun-13 10:01N 43°44' E 007°26'0 0.0
2017-Jun-13 09:30N 43°44' E 007°26'0 0.0
2017-Jun-13 08:59N 43°44' E 007°26'0 0.0
2017-Jun-12 21:50N 43°44' E 007°26'0 0.0
2017-Jun-12 20:00N 43°44' E 007°26'0 0.0
2017-Jun-12 19:29N 43°44' E 007°26'0 0.0
2017-Jun-12 19:00N 43°44' E 007°26'0 0.0
2017-Jun-12 18:21N 43°44' E 007°26'0 0.0
2017-Jun-12 17:59N 43°44' E 007°26'0 0.0
2017-Jun-12 17:30N 43°44' E 007°26'0 0.0
2017-Jun-12 15:58N 43°44' E 007°26'0 0.0
2017-Jun-12 15:28N 43°44' E 007°26'0 0.0
2017-Jun-12 14:48N 43°44' E 007°26'0 0.0
2017-Jun-12 14:29N 43°44' E 007°26'0 0.0
2017-Jun-12 13:30N 43°44' E 007°26'0 0.0
2017-Jun-12 13:00N 43°44' E 007°26'0 0.0
2017-Jun-12 10:24N 43°44' E 007°26'0 0.0
2017-Jun-12 08:45N 43°44' E 007°26'0 0.0
2017-Jun-12 08:30N 43°44' E 007°26'0 0.0
2017-Jun-12 08:00N 43°44' E 007°26'0 0.0
2017-Jun-12 07:30N 43°44' E 007°26'0 0.0
2017-Jun-12 01:38N 43°44' E 007°26'0 0.0
2017-Jun-12 01:30N 43°44' E 007°26'0 0.0
2017-Jun-11 23:32N 43°44' E 007°26'0 0.0
2017-Jun-11 23:30N 43°44' E 007°26'0 0.0
2017-Jun-11 23:00N 43°44' E 007°26'0 0.0
2017-Jun-11 22:30N 43°44' E 007°26'0 0.0
2017-Jun-11 21:59N 43°44' E 007°26'0 0.0
2017-Jun-11 21:30N 43°44' E 007°26'0 0.0
2017-Jun-11 21:01N 43°44' E 007°26'0 0.0
2017-Jun-11 20:30N 43°44' E 007°26'0 0.0
2017-Jun-11 10:03N 43°44' E 007°26'0 0.0
2017-Jun-11 09:56N 43°44' E 007°26'0 0.0
2017-Jun-11 09:30N 43°44' E 007°26'0 0.0
2017-Jun-11 02:04N 43°44' E 007°26'0 0.0
2017-Jun-11 01:54N 43°44' E 007°26'0 0.0
2017-Jun-10 22:38N 43°44' E 007°26'0 0.0
2017-Jun-10 22:29N 43°44' E 007°26'0 0.0
2017-Jun-10 22:00N 43°44' E 007°26'0 0.0
2017-Jun-10 21:30N 43°44' E 007°26'0 0.0
2017-Jun-10 19:45N 43°44' E 007°26'0 0.0
2017-Jun-10 19:29N 43°44' E 007°26'0 0.0
2017-Jun-10 13:55N 43°44' E 007°26'0 0.0
2017-Jun-10 13:30N 43°44' E 007°26'0 0.0
2017-Jun-10 13:00N 43°44' E 007°26'0 0.0
2017-Jun-10 10:20N 43°44' E 007°26'0 0.0
2017-Jun-10 10:00N 43°44' E 007°26'0 0.0
2017-Jun-10 09:31N 43°44' E 007°26'0 0.0
2017-Jun-10 09:01N 43°44' E 007°26'0 0.0
2017-Jun-10 08:31N 43°44' E 007°26'0 0.0
2017-Jun-10 08:00N 43°44' E 007°26'0 0.0
2017-Jun-10 07:26N 43°44' E 007°26'0 0.0
2017-Jun-10 07:00N 43°44' E 007°26'0 0.0
2017-Jun-10 06:30N 43°44' E 007°26'0 0.0
2017-Jun-10 04:39N 43°44' E 007°26'0 0.0
2017-Jun-09 15:23N 43°44' E 007°26'  
2017-Jun-06 18:28N 43°44' E 007°26'0 0.0
2017-Jun-06 17:59N 43°44' E 007°26'0 0.0
2017-Jun-06 17:26N 43°44' E 007°26'0 0.0
2017-Jun-06 17:00N 43°44' E 007°26'0 0.0
2017-Jun-06 16:30N 43°44' E 007°26'0 0.0
2017-Jun-06 16:00N 43°44' E 007°26'0 0.0
2017-Jun-06 15:30N 43°44' E 007°26'0 0.0
2017-Jun-06 11:33N 43°44' E 007°26'0 0.0
2017-Jun-06 11:15N 43°44' E 007°26'0 0.0
2017-Jun-06 10:48N 43°44' E 007°26'0 0.0
2017-Jun-06 10:26N 43°44' E 007°26'0 0.0
2017-Jun-06 10:01N 43°44' E 007°26'0 0.0
2017-Jun-06 09:14N 43°44' E 007°26'0 0.0
2017-Jun-06 09:00N 43°44' E 007°26'0 0.0
2017-Jun-06 08:30N 43°44' E 007°26'0 0.0
2017-Jun-06 08:00N 43°44' E 007°26'0 0.0
2017-Jun-06 07:30N 43°44' E 007°26'  
Track history (hours):
 
Tides and Currents Weather Stations Pressure Air Temp Water Temp Dewpoint Dewpoint Depression Visibility Wind Speed Wind Dir Waves Ship Positions

Taouey

Last reported at 2017-Jun-16 07:07 UTC. Time now 2017-Jun-24 01:59 UTC.
Position N 41°05' E 009°32'.

Length 58 m; draft 4 m.

MMSI: 310079000.

Date/timePositionNaut miles runAvg speedWind from/ knotsBaromVisibWave heightAir tempDewpointWater temp
2017-Jun-16 07:07N 41°05' E 009°32'0 0.0
2017-Jun-16 06:52N 41°05' E 009°32'0 0.0
2017-Jun-16 06:30N 41°05' E 009°32'0 0.0
2017-Jun-16 05:53N 41°05' E 009°32'0 0.0
2017-Jun-16 05:30N 41°05' E 009°32'0 0.0
2017-Jun-16 05:00N 41°05' E 009°32'0 0.0
2017-Jun-16 04:26N 41°05' E 009°32'0 0.0
2017-Jun-16 04:00N 41°05' E 009°32'0 0.0
2017-Jun-16 03:29N 41°05' E 009°32'0 0.0
2017-Jun-16 03:00N 41°05' E 009°32'0 0.0
2017-Jun-16 02:30N 41°05' E 009°32'0 0.0
2017-Jun-16 02:00N 41°05' E 009°32'0 0.0
2017-Jun-16 01:30N 41°05' E 009°32'0 0.1
2017-Jun-16 01:00N 41°05' E 009°32'0 0.0
2017-Jun-16 00:30N 41°05' E 009°32'0 0.0
2017-Jun-15 23:59N 41°05' E 009°32'0 0.0
2017-Jun-15 23:27N 41°05' E 009°32'0 0.0
2017-Jun-15 22:57N 41°05' E 009°32'0 0.0
2017-Jun-15 22:27N 41°05' E 009°32'0 0.0
2017-Jun-15 21:57N 41°05' E 009°32'0 0.0
2017-Jun-15 21:23N 41°05' E 009°32'0 0.0
2017-Jun-15 21:00N 41°05' E 009°32'0 0.0
2017-Jun-15 20:29N 41°05' E 009°32'0 0.0
2017-Jun-15 19:58N 41°05' E 009°32'0 0.0
2017-Jun-15 19:29N 41°05' E 009°32'0 0.0
2017-Jun-15 18:58N 41°05' E 009°32'0 0.1
2017-Jun-15 18:17N 41°05' E 009°32'0 0.1
2017-Jun-15 17:55N 41°05' E 009°32'0 0.0
2017-Jun-15 17:17N 41°05' E 009°32'0 0.0
2017-Jun-15 16:33N 41°05' E 009°32'0 0.1
2017-Jun-15 16:29N 41°05' E 009°32'0 0.0
2017-Jun-15 15:56N 41°05' E 009°32'0 0.0
2017-Jun-15 15:05N 41°05' E 009°32'0 0.0
2017-Jun-15 14:50N 41°05' E 009°32'0 0.0
2017-Jun-15 13:59N 41°05' E 009°32'0 0.0
2017-Jun-15 13:28N 41°05' E 009°32'0 0.0
2017-Jun-15 12:48N 41°05' E 009°32'0 0.0
2017-Jun-15 12:28N 41°05' E 009°32'0 0.0
2017-Jun-15 11:49N 41°05' E 009°32'0 0.0
2017-Jun-15 10:30N 41°05' E 009°32'1 1.6
2017-Jun-15 09:53N 41°04' E 009°33'3 8.3
2017-Jun-15 09:28N 41°07' E 009°35'6 9.7
2017-Jun-15 08:54N 41°10' E 009°28'411.1
2017-Jun-15 08:30N 41°12' E 009°23'510.4
2017-Jun-15 08:00N 41°15' E 009°18'610.1
2017-Jun-15 07:25N 41°17' E 009°10'511.1
2017-Jun-15 06:57N 41°17' E 009°03'610.8
2017-Jun-15 06:23N 41°20' E 008°56'410.8
2017-Jun-15 05:59N 41°23' E 008°52'611.0
2017-Jun-15 05:27N 41°27' E 008°46'510.9
2017-Jun-15 04:57N 41°31' E 008°42'510.4
2017-Jun-15 04:30N 41°34' E 008°37'510.1
2017-Jun-15 03:59N 41°38' E 008°33'510.1
2017-Jun-15 03:28N 41°43' E 008°29'510.1
2017-Jun-15 02:59N 41°47' E 008°26'5 9.9
2017-Jun-15 02:28N 41°52' E 008°24'510.4
2017-Jun-15 01:57N 41°57' E 008°21'510.3
2017-Jun-15 01:29N 42°01' E 008°19'510.3
2017-Jun-15 01:01N 42°06' E 008°16'610.4
2017-Jun-15 00:29N 42°11' E 008°14'610.5
2017-Jun-14 23:55N 42°17' E 008°11'510.6
2017-Jun-14 23:26N 42°21' E 008°08'510.7
2017-Jun-14 22:58N 42°26' E 008°06'710.6
2017-Jun-14 22:18N 42°33' E 008°03'310.8
2017-Jun-14 21:59N 42°36' E 008°01'510.8
2017-Jun-14 21:30N 42°41' E 007°58'910.5
2017-Jun-14 20:39N 42°49' E 007°54'210.2
2017-Jun-14 20:30N 42°51' E 007°54'510.3
2017-Jun-14 19:59N 42°56' E 007°51'52 2.4
2017-Jun-13 22:23N 43°44' E 007°26'0 0.0
2017-Jun-13 21:58N 43°44' E 007°26'0 0.0
2017-Jun-13 14:48N 43°44' E 007°26'0 0.0
2017-Jun-13 14:23N 43°44' E 007°26'0 0.0
2017-Jun-13 11:18N 43°44' E 007°26'0 0.0
2017-Jun-13 11:01N 43°44' E 007°26'0 0.0
2017-Jun-13 10:30N 43°44' E 007°26'0 0.0
2017-Jun-13 10:01N 43°44' E 007°26'0 0.0
2017-Jun-13 09:30N 43°44' E 007°26'0 0.0
2017-Jun-13 08:59N 43°44' E 007°26'0 0.0
2017-Jun-12 21:50N 43°44' E 007°26'0 0.0
2017-Jun-12 20:00N 43°44' E 007°26'0 0.0
2017-Jun-12 19:29N 43°44' E 007°26'0 0.0
2017-Jun-12 19:00N 43°44' E 007°26'0 0.0
2017-Jun-12 18:21N 43°44' E 007°26'0 0.0
2017-Jun-12 17:59N 43°44' E 007°26'0 0.0
2017-Jun-12 17:30N 43°44' E 007°26'0 0.0
2017-Jun-12 15:58N 43°44' E 007°26'0 0.0
2017-Jun-12 15:28N 43°44' E 007°26'0 0.0
2017-Jun-12 14:48N 43°44' E 007°26'0 0.0
2017-Jun-12 14:29N 43°44' E 007°26'0 0.0
2017-Jun-12 13:30N 43°44' E 007°26'0 0.0
2017-Jun-12 13:00N 43°44' E 007°26'0 0.0
2017-Jun-12 10:24N 43°44' E 007°26'0 0.0
2017-Jun-12 08:45N 43°44' E 007°26'0 0.0
2017-Jun-12 08:30N 43°44' E 007°26'0 0.0
2017-Jun-12 08:00N 43°44' E 007°26'0 0.0
2017-Jun-12 07:30N 43°44' E 007°26'0 0.0
2017-Jun-12 01:38N 43°44' E 007°26'0 0.0
2017-Jun-12 01:30N 43°44' E 007°26'0 0.0
2017-Jun-11 23:32N 43°44' E 007°26'0 0.0
2017-Jun-11 23:30N 43°44' E 007°26'0 0.0
2017-Jun-11 23:00N 43°44' E 007°26'0 0.0
2017-Jun-11 22:30N 43°44' E 007°26'0 0.0
2017-Jun-11 21:59N 43°44' E 007°26'0 0.0
2017-Jun-11 21:30N 43°44' E 007°26'0 0.0
2017-Jun-11 21:01N 43°44' E 007°26'0 0.0
2017-Jun-11 20:30N 43°44' E 007°26'0 0.0
2017-Jun-11 10:03N 43°44' E 007°26'0 0.0
2017-Jun-11 09:56N 43°44' E 007°26'0 0.0
2017-Jun-11 09:30N 43°44' E 007°26'0 0.0
2017-Jun-11 02:04N 43°44' E 007°26'0 0.0
2017-Jun-11 01:54N 43°44' E 007°26'0 0.0
2017-Jun-10 22:38N 43°44' E 007°26'0 0.0
2017-Jun-10 22:29N 43°44' E 007°26'0 0.0
2017-Jun-10 22:00N 43°44' E 007°26'0 0.0
2017-Jun-10 21:30N 43°44' E 007°26'0 0.0
2017-Jun-10 19:45N 43°44' E 007°26'0 0.0
2017-Jun-10 19:29N 43°44' E 007°26'0 0.0
2017-Jun-10 13:55N 43°44' E 007°26'0 0.0
2017-Jun-10 13:30N 43°44' E 007°26'0 0.0
2017-Jun-10 13:00N 43°44' E 007°26'0 0.0
2017-Jun-10 10:20N 43°44' E 007°26'0 0.0
2017-Jun-10 10:00N 43°44' E 007°26'0 0.0
2017-Jun-10 09:31N 43°44' E 007°26'0 0.0
2017-Jun-10 09:01N 43°44' E 007°26'0 0.0
2017-Jun-10 08:31N 43°44' E 007°26'0 0.0
2017-Jun-10 08:00N 43°44' E 007°26'0 0.0
2017-Jun-10 07:26N 43°44' E 007°26'0 0.0
2017-Jun-10 07:00N 43°44' E 007°26'0 0.0
2017-Jun-10 06:30N 43°44' E 007°26'0 0.0
2017-Jun-10 04:39N 43°44' E 007°26'0 0.0
2017-Jun-09 15:23N 43°44' E 007°26'  
2017-Jun-06 18:28N 43°44' E 007°26'0 0.0
2017-Jun-06 17:59N 43°44' E 007°26'0 0.0
2017-Jun-06 17:26N 43°44' E 007°26'0 0.0
2017-Jun-06 17:00N 43°44' E 007°26'0 0.0
2017-Jun-06 16:30N 43°44' E 007°26'0 0.0
2017-Jun-06 16:00N 43°44' E 007°26'0 0.0
2017-Jun-06 15:30N 43°44' E 007°26'0 0.0
2017-Jun-06 11:33N 43°44' E 007°26'0 0.0
2017-Jun-06 11:15N 43°44' E 007°26'0 0.0
2017-Jun-06 10:48N 43°44' E 007°26'0 0.0
2017-Jun-06 10:26N 43°44' E 007°26'0 0.0
2017-Jun-06 10:01N 43°44' E 007°26'0 0.0
2017-Jun-06 09:14N 43°44' E 007°26'0 0.0
2017-Jun-06 09:00N 43°44' E 007°26'0 0.0
2017-Jun-06 08:30N 43°44' E 007°26'0 0.0
2017-Jun-06 08:00N 43°44' E 007°26'0 0.0
2017-Jun-06 07:30N 43°44' E 007°26'  

Dump ship's entire track history